Time;durP1;ratioP1;P1;durP2;ratioP2;P2;SDS_P1;SDS_P2;PMS_P1;PMS_P2;Temp;Humidity;BMP_temperature;BMP_pressure;BME280_temperature;BME280_humidity;BME280_pressure;Samples;Min_cycle;Max_cycle;Signal;HPM_P1;HPM_P2
2023/05/16 00:01:15;;;;;;;;;;;;;;;12.91;100.00;94846.22;5073577;28;993;-54
2023/05/16 00:03:42;;;;;;;;;;;;;;;12.95;100.00;94836.78;5073832;28;1094;-54
2023/05/16 00:06:08;;;;;;;;;;;;;;;13.07;100.00;94829.97;5073668;28;1028;-54
2023/05/16 00:08:34;;;;;;;;;;;;;;;13.16;100.00;94825.31;5073339;28;1647;-54
2023/05/16 00:11:00;;;;;;;;;;;;;;;12.97;100.00;94823.19;5073468;28;1647;-54
2023/05/16 00:13:28;;;;;;;;;;;;;;;13.01;100.00;94816.44;5073287;28;1906;-54
2023/05/16 00:15:54;;;;;;;;;;;;;;;13.12;100.00;94824.03;5073570;28;1025;-54
2023/05/16 00:18:21;;;;;;;;;;;;;;;13.13;100.00;94823.03;5073434;28;1024;-54
2023/05/16 00:20:48;;;;;;;;;;;;;;;13.16;100.00;94811.09;5073625;28;990;-54
2023/05/16 00:23:14;;;;;;;;;;;;;;;13.07;100.00;94805.81;5073528;28;1025;-54
2023/05/16 00:25:40;;;;;;;;;;;;;;;12.98;100.00;94798.03;5073318;28;1233;-54
2023/05/16 00:28:07;;;;;;;;;;;;;;;13.07;100.00;94799.59;5073255;28;1068;-54
2023/05/16 00:30:34;;;;;;;;;;;;;;;13.10;100.00;94793.88;5072746;28;1029;-54
2023/05/16 00:33:01;;;;;;;;;;;;;;;13.05;100.00;94791.75;5073212;28;1914;-54
2023/05/16 00:35:27;;;;;;;;;;;;;;;13.11;100.00;94797.38;5073433;28;1040;-54
2023/05/16 00:37:53;;;;;;;;;;;;;;;13.12;100.00;94793.69;5073426;28;1001;-54
2023/05/16 00:40:20;;;;;;;;;;;;;;;13.21;100.00;94797.94;5073232;28;1048;-54
2023/05/16 00:42:46;;;;;;;;;;;;;;;13.24;100.00;94803.78;5073245;28;1101;-54
2023/05/16 00:45:12;;;;;;;;;;;;;;;13.05;100.00;94815.91;5073300;28;1001;-54
2023/05/16 00:47:38;;;;;;;;;;;;;;;13.07;100.00;94808.50;5073376;28;1026;-54
2023/05/16 00:50:05;;;;;;;;;;;;;;;13.10;100.00;94815.34;5073103;28;1045;-54
2023/05/16 00:52:32;;;;;;;;;;;;;;;13.02;100.00;94810.06;5073148;28;1913;-54
2023/05/16 00:54:58;;;;;;;;;;;;;;;12.97;100.00;94807.91;5073329;28;1037;-54
2023/05/16 00:57:24;;;;;;;;;;;;;;;13.09;100.00;94800.28;5073222;28;1033;-54
2023/05/16 00:59:51;;;;;;;;;;;;;;;13.06;100.00;94814.03;5073005;28;1223;-54
2023/05/16 01:02:17;;;;;;;;;;;;;;;13.12;100.00;94801.75;5072926;28;1022;-54
2023/05/16 01:04:43;;;;;;;;;;;;;;;13.06;100.00;94798.75;5073162;28;989;-53
2023/05/16 01:07:09;;;;;;;;;;;;;;;12.87;100.00;94805.50;5073189;28;997;-54
2023/05/16 01:09:36;;;;;;;;;;;;;;;12.66;100.00;94790.13;5073062;28;1616;-53
2023/05/16 01:12:02;;;;;;;;;;;;;;;12.66;100.00;94789.31;5072921;28;1988;-54
2023/05/16 01:14:38;;;;;;;;;;;;;;;12.81;100.00;94787.47;5072781;28;1095;-54
2023/05/16 01:17:08;;;;;;;;;;;;;;;12.93;100.00;94795.06;5072793;28;1034;-54
2023/05/16 01:19:49;;;;;;;;;;;;;;;12.94;100.00;94789.53;5072958;28;977;-54
2023/05/16 01:22:36;;;;;;;;;;;;;;;12.98;100.00;94792.69;5072871;28;1032;-54
2023/05/16 01:25:12;;;;;;;;;;;;;;;12.91;100.00;94789.06;5072663;28;1166;-54
2023/05/16 01:27:39;;;;;;;;;;;;;;;12.91;100.00;94792.56;5073271;28;1125;-54
2023/05/16 01:30:12;;;;;;;;;;;;;;;12.86;100.00;94782.41;5055075;28;1052;-54
2023/05/16 01:32:38;;;;;;;;;;;;;;;12.59;100.00;94783.81;5072871;28;2017;-54
2023/05/16 01:35:05;;;;;;;;;;;;;;;12.64;100.00;94792.16;5072924;28;1044;-54
2023/05/16 01:37:54;;;;;;;;;;;;;;;12.72;100.00;94782.38;5072897;28;1033;-53
2023/05/16 01:40:36;;;;;;;;;;;;;;;12.78;100.00;94776.28;5044113;28;1165;-54
2023/05/16 01:43:03;;;;;;;;;;;;;;;12.91;100.00;94778.31;5057349;28;1117;-54
2023/05/16 01:45:31;;;;;;;;;;;;;;;12.92;100.00;94783.50;5076107;28;1013;-54
2023/05/16 01:48:01;;;;;;;;;;;;;;;12.81;100.00;94776.75;5076420;28;1040;-54
2023/05/16 01:50:31;;;;;;;;;;;;;;;12.75;100.00;94784.69;5076135;28;1044;-54
2023/05/16 01:52:57;;;;;;;;;;;;;;;12.59;100.00;94778.47;5076186;28;1988;-54
2023/05/16 01:55:43;;;;;;;;;;;;;;;12.56;100.00;94769.94;5076141;28;1037;-54
2023/05/16 01:58:10;;;;;;;;;;;;;;;12.53;100.00;94768.47;5065383;28;1283;-54
2023/05/16 02:00:36;;;;;;;;;;;;;;;12.58;100.00;94767.94;5076014;28;1042;-53
2023/05/16 02:03:02;;;;;;;;;;;;;;;12.72;100.00;94767.13;5075900;28;1097;-53
2023/05/16 02:05:28;;;;;;;;;;;;;;;12.84;100.00;94754.94;5075741;28;962;-56
2023/05/16 02:07:54;;;;;;;;;;;;;;;12.92;100.00;94756.69;5075993;28;1038;-54
2023/05/16 02:10:21;;;;;;;;;;;;;;;12.82;100.00;94756.09;5058093;28;1630;-54
2023/05/16 02:12:47;;;;;;;;;;;;;;;12.68;100.00;94755.09;5075581;28;1910;-54
2023/05/16 02:15:13;;;;;;;;;;;;;;;12.67;100.00;94753.41;5075456;28;1046;-54
2023/05/16 02:17:39;;;;;;;;;;;;;;;12.68;100.00;94760.44;5075638;28;1001;-54
2023/05/16 02:20:08;;;;;;;;;;;;;;;12.61;100.00;94751.47;5075542;28;966;-54
2023/05/16 02:22:35;;;;;;;;;;;;;;;12.57;100.00;94751.00;5075388;28;1037;-54
2023/05/16 02:25:02;;;;;;;;;;;;;;;12.62;100.00;94751.28;5075487;28;1010;-54
2023/05/16 02:27:28;;;;;;;;;;;;;;;12.64;100.00;94751.94;5075188;28;1022;-54
2023/05/16 02:29:54;;;;;;;;;;;;;;;12.55;100.00;94755.72;5075274;28;1039;-54
2023/05/16 02:32:20;;;;;;;;;;;;;;;12.51;100.00;94759.78;5057378;28;1997;-54
2023/05/16 02:34:46;;;;;;;;;;;;;;;12.52;100.00;94757.94;5075211;28;1042;-54
2023/05/16 02:37:12;;;;;;;;;;;;;;;12.53;100.00;94762.28;5075333;28;1012;-54
2023/05/16 02:39:39;;;;;;;;;;;;;;;12.60;100.00;94760.53;5075098;28;1109;-54
2023/05/16 02:42:06;;;;;;;;;;;;;;;12.61;100.00;94759.50;5075436;28;1048;-54
2023/05/16 02:44:32;;;;;;;;;;;;;;;12.62;100.00;94762.03;5074867;28;1104;-54
2023/05/16 02:46:58;;;;;;;;;;;;;;;12.73;100.00;94755.38;5075015;28;1030;-54
2023/05/16 02:49:25;;;;;;;;;;;;;;;12.84;100.00;94748.69;5057113;28;1043;-54
2023/05/16 02:51:51;;;;;;;;;;;;;;;12.78;100.00;94752.13;5074885;28;1026;-54
2023/05/16 02:54:17;;;;;;;;;;;;;;;12.66;100.00;94752.59;5074875;28;1967;-54
2023/05/16 02:56:43;;;;;;;;;;;;;;;12.66;100.00;94755.28;5074922;28;1050;-54
2023/05/16 02:59:10;;;;;;;;;;;;;;;12.70;100.00;94745.00;5074934;28;993;-54
2023/05/16 03:01:36;;;;;;;;;;;;;;;12.70;100.00;94745.00;5074803;28;1240;-54
2023/05/16 03:04:02;;;;;;;;;;;;;;;12.72;100.00;94750.19;5074844;28;993;-54
2023/05/16 03:06:31;;;;;;;;;;;;;;;12.82;100.00;94738.16;5074515;28;1100;-54
2023/05/16 03:08:57;;;;;;;;;;;;;;;12.84;100.00;94738.81;5074447;28;1618;-54
2023/05/16 03:11:23;;;;;;;;;;;;;;;12.82;100.00;94743.50;5074746;28;973;-54
2023/05/16 03:13:49;;;;;;;;;;;;;;;12.83;100.00;94739.00;5074383;28;1906;-54
2023/05/16 03:16:16;;;;;;;;;;;;;;;12.90;100.00;94756.03;5074675;28;1013;-54
2023/05/16 03:18:42;;;;;;;;;;;;;;;12.85;100.00;94755.75;5074373;28;1025;-54
2023/05/16 03:21:08;;;;;;;;;;;;;;;12.77;100.00;94756.66;5074491;28;990;-54
2023/05/16 03:23:34;;;;;;;;;;;;;;;12.78;100.00;94761.00;5074347;28;990;-53
2023/05/16 03:26:00;;;;;;;;;;;;;;;12.88;100.00;94766.09;5074349;28;1024;-54
2023/05/16 03:28:26;;;;;;;;;;;;;;;12.92;100.00;94771.94;5074211;28;1053;-54
2023/05/16 03:30:52;;;;;;;;;;;;;;;12.83;100.00;94768.53;5074140;28;1033;-55
2023/05/16 03:33:18;;;;;;;;;;;;;;;12.80;100.00;94777.75;5073824;28;1905;-54
2023/05/16 03:35:45;;;;;;;;;;;;;;;12.89;100.00;94783.88;5074029;28;1000;-54
2023/05/16 03:38:11;;;;;;;;;;;;;;;12.94;100.00;94775.25;5074068;28;1025;-54
2023/05/16 03:40:37;;;;;;;;;;;;;;;12.98;100.00;94772.03;5074189;28;1052;-55
2023/05/16 03:43:03;;;;;;;;;;;;;;;13.11;100.00;94767.84;5073644;28;1196;-54
2023/05/16 03:45:30;;;;;;;;;;;;;;;13.18;100.00;94766.09;5056229;28;973;-54
2023/05/16 03:47:56;;;;;;;;;;;;;;;13.21;100.00;94763.03;5073681;28;1045;-54
2023/05/16 03:50:22;;;;;;;;;;;;;;;13.14;100.00;94759.44;5073516;28;2001;-54
2023/05/16 03:52:48;;;;;;;;;;;;;;;13.11;100.00;94762.47;5056087;28;1985;-54
2023/05/16 03:55:15;;;;;;;;;;;;;;;13.19;100.00;94765.91;5073912;28;1036;-54
2023/05/16 03:57:41;;;;;;;;;;;;;;;13.17;100.00;94761.75;5073765;28;1013;-54
2023/05/16 04:00:09;;;;;;;;;;;;;;;13.04;100.00;94759.72;5073621;28;1108;-54
2023/05/16 04:02:36;;;;;;;;;;;;;;;12.98;100.00;94747.88;5039615;28;1037;-54
2023/05/16 04:05:02;;;;;;;;;;;;;;;13.08;100.00;94747.59;5073236;28;1092;-54
2023/05/16 04:07:28;;;;;;;;;;;;;;;13.24;100.00;94754.59;5073347;28;1054;-54
2023/05/16 04:09:57;;;;;;;;;;;;;;;13.34;100.00;94755.19;5073715;28;1563;-54
2023/05/16 04:12:23;;;;;;;;;;;;;;;13.42;100.00;94756.94;5073495;28;1990;-53
2023/05/16 04:14:49;;;;;;;;;;;;;;;13.40;100.00;94754.44;5073317;28;1055;-53
2023/05/16 04:17:15;;;;;;;;;;;;;;;13.32;100.00;94754.56;5073422;28;1013;-53
2023/05/16 04:19:41;;;;;;;;;;;;;;;13.28;100.00;94755.91;5073675;28;958;-53
2023/05/16 04:22:07;;;;;;;;;;;;;;;13.27;100.00;94755.06;5073304;28;1085;-53
2023/05/16 04:24:34;;;;;;;;;;;;;;;13.37;100.00;94752.13;5055294;28;1184;-54
2023/05/16 04:27:00;;;;;;;;;;;;;;;13.51;100.00;94760.31;5073291;28;981;-54
2023/05/16 04:29:26;;;;;;;;;;;;;;;13.69;100.00;94757.25;5073387;28;1029;-54
2023/05/16 04:31:52;;;;;;;;;;;;;;;13.73;100.00;94753.16;5055522;28;966;-54
2023/05/16 04:34:18;;;;;;;;;;;;;;;13.73;100.00;94758.53;5073319;28;1902;-54
2023/05/16 04:36:44;;;;;;;;;;;;;;;13.70;100.00;94757.06;5073120;28;1034;-54
2023/05/16 04:39:11;;;;;;;;;;;;;;;13.69;100.00;94758.06;5073263;28;1048;-54
2023/05/16 04:41:37;;;;;;;;;;;;;;;13.67;100.00;94758.25;5073176;28;994;-54
2023/05/16 04:44:03;;;;;;;;;;;;;;;13.74;100.00;94761.03;5072948;28;1216;-54
2023/05/16 04:46:29;;;;;;;;;;;;;;;13.81;100.00;94755.69;5072889;28;1112;-54
2023/05/16 04:48:56;;;;;;;;;;;;;;;13.85;100.00;94768.59;5073302;28;1159;-54
2023/05/16 04:51:22;;;;;;;;;;;;;;;13.93;100.00;94767.63;5072918;28;1038;-55
2023/05/16 04:53:48;;;;;;;;;;;;;;;13.95;100.00;94770.94;5073069;28;1984;-54
2023/05/16 04:56:14;;;;;;;;;;;;;;;13.93;100.00;94767.63;5072893;28;1982;-54
2023/05/16 04:58:40;;;;;;;;;;;;;;;13.95;100.00;94773.63;5055532;28;1126;-54
2023/05/16 05:01:06;;;;;;;;;;;;;;;14.08;100.00;94767.56;5072964;28;1889;-54
2023/05/16 05:03:33;;;;;;;;;;;;;;;14.07;100.00;94752.47;5072834;28;1046;-53
2023/05/16 05:05:59;;;;;;;;;;;;;;;14.12;100.00;94755.41;5072857;28;1062;-53
2023/05/16 05:08:25;;;;;;;;;;;;;;;14.26;100.00;94750.97;5072762;28;1559;-53
2023/05/16 05:10:51;;;;;;;;;;;;;;;14.46;100.00;94743.09;5072883;28;1057;-53
2023/05/16 05:13:17;;;;;;;;;;;;;;;14.55;100.00;94746.44;5055141;28;1906;-53
2023/05/16 05:15:43;;;;;;;;;;;;;;;14.66;100.00;94745.09;5072707;28;965;-53
2023/05/16 05:18:09;;;;;;;;;;;;;;;14.67;100.00;94760.25;5075776;28;1002;-53
2023/05/16 05:20:35;;;;;;;;;;;;;;;14.70;100.00;94749.06;5076567;28;1058;-53
2023/05/16 05:23:01;;;;;;;;;;;;;;;14.73;100.00;94756.75;5076988;28;950;-53
2023/05/16 05:25:27;;;;;;;;;;;;;;;14.86;100.00;94758.72;5076760;28;949;-53
2023/05/16 05:27:53;;;;;;;;;;;;;;;14.99;100.00;94756.94;5076430;28;953;-53
2023/05/16 05:30:20;;;;;;;;;;;;;;;14.94;100.00;94761.25;5076325;28;1024;-53
2023/05/16 05:32:46;;;;;;;;;;;;;;;14.84;100.00;94750.84;5076025;28;1984;-53
2023/05/16 05:35:12;;;;;;;;;;;;;;;14.79;100.00;94739.81;5076502;28;957;-53
2023/05/16 05:37:38;;;;;;;;;;;;;;;14.85;100.00;94730.94;5076556;28;977;-53
2023/05/16 05:40:04;;;;;;;;;;;;;;;14.73;100.00;94737.94;5076486;28;1020;-53
2023/05/16 05:42:30;;;;;;;;;;;;;;;14.62;100.00;94734.72;5075002;28;1252;-53
2023/05/16 05:44:56;;;;;;;;;;;;;;;14.61;100.00;94727.72;5075594;28;985;-52
2023/05/16 05:47:23;;;;;;;;;;;;;;;14.66;100.00;94721.72;5058582;28;1041;-53
2023/05/16 05:49:49;;;;;;;;;;;;;;;14.62;100.00;94723.97;5076012;28;1022;-53
2023/05/16 05:52:15;;;;;;;;;;;;;;;14.72;100.00;94720.97;5076059;28;1975;-53
2023/05/16 05:54:41;;;;;;;;;;;;;;;14.72;100.00;94714.72;5076178;28;1041;-52
2023/05/16 05:57:08;;;;;;;;;;;;;;;14.73;100.00;94714.53;5075855;28;1026;-52
2023/05/16 05:59:34;;;;;;;;;;;;;;;14.83;100.00;94720.41;5075638;28;1101;-53
2023/05/16 06:02:00;;;;;;;;;;;;;;;15.09;100.00;94716.19;5075732;28;1036;-53
2023/05/16 06:04:26;;;;;;;;;;;;;;;15.26;100.00;94721.25;5075882;28;967;-53
2023/05/16 06:06:52;;;;;;;;;;;;;;;15.36;100.00;94725.19;5075890;28;1041;-53
2023/05/16 06:09:20;;;;;;;;;;;;;;;15.59;100.00;94719.50;5075619;28;1331;-53
2023/05/16 06:11:46;;;;;;;;;;;;;;;15.52;100.00;94720.50;5075478;28;974;-53
2023/05/16 06:14:13;;;;;;;;;;;;;;;15.62;100.00;94720.94;5075607;28;1918;-53
2023/05/16 06:16:39;;;;;;;;;;;;;;;15.67;100.00;94713.09;5075552;28;1942;-53
2023/05/16 06:19:06;;;;;;;;;;;;;;;15.70;100.00;94714.53;5075745;28;1049;-54
2023/05/16 06:21:32;;;;;;;;;;;;;;;15.70;99.27;94715.38;5075386;28;1468;-54
2023/05/16 06:23:58;;;;;;;;;;;;;;;15.83;96.74;94717.31;5075425;28;1085;-54
2023/05/16 06:26:24;;;;;;;;;;;;;;;15.62;98.37;94726.34;5075328;28;982;-54
2023/05/16 06:28:50;;;;;;;;;;;;;;;15.57;98.86;94728.81;5074848;28;1050;-53
2023/05/16 06:31:16;;;;;;;;;;;;;;;15.55;99.96;94725.47;5075506;28;1025;-53
2023/05/16 06:33:42;;;;;;;;;;;;;;;15.49;100.00;94740.59;5075311;28;1914;-53
2023/05/16 06:36:08;;;;;;;;;;;;;;;15.62;99.63;94747.91;5075087;28;1216;-53
2023/05/16 06:38:34;;;;;;;;;;;;;;;15.70;99.75;94746.88;5074946;28;1641;-53
2023/05/16 06:41:01;;;;;;;;;;;;;;;15.86;99.15;94737.63;5074939;28;1959;-54
2023/05/16 06:43:27;;;;;;;;;;;;;;;15.83;99.35;94736.16;5057023;28;1421;-54
2023/05/16 06:45:53;;;;;;;;;;;;;;;15.84;100.00;94734.28;5075336;28;1038;-54
2023/05/16 06:48:19;;;;;;;;;;;;;;;15.75;100.00;94737.19;5075034;28;1039;-53
2023/05/16 06:50:50;;;;;;;;;;;;;;;15.79;100.00;94733.06;5075028;28;959;-54
2023/05/16 06:53:17;;;;;;;;;;;;;;;15.96;100.00;94727.28;5074565;28;1992;-54
2023/05/16 06:55:43;;;;;;;;;;;;;;;16.19;98.82;94729.59;5074639;28;1022;-54
2023/05/16 06:58:09;;;;;;;;;;;;;;;16.41;96.72;94719.44;5074642;28;1213;-54
2023/05/16 07:00:35;;;;;;;;;;;;;;;16.78;95.34;94717.94;5074969;28;1020;-54
2023/05/16 07:03:02;;;;;;;;;;;;;;;16.90;92.71;94718.19;5074861;28;958;-54
2023/05/16 07:05:28;;;;;;;;;;;;;;;17.03;90.66;94709.19;5074722;28;950;-54
2023/05/16 07:07:54;;;;;;;;;;;;;;;17.18;89.03;94714.34;5074471;28;1039;-54
2023/05/16 07:10:20;;;;;;;;;;;;;;;17.19;89.42;94702.53;5074298;28;1297;-54
2023/05/16 07:12:47;;;;;;;;;;;;;;;17.22;90.34;94704.78;5074284;28;2017;-54
2023/05/16 07:15:13;;;;;;;;;;;;;;;17.21;88.64;94702.31;5074249;28;1075;-54
2023/05/16 07:17:39;;;;;;;;;;;;;;;17.25;89.23;94693.56;5074528;28;965;-54
2023/05/16 07:20:06;;;;;;;;;;;;;;;17.29;88.69;94700.19;5056949;28;1020;-54
2023/05/16 07:22:32;;;;;;;;;;;;;;;17.50;90.06;94696.34;5074143;28;1101;-54
2023/05/16 07:24:59;;;;;;;;;;;;;;;17.57;89.51;94690.94;5074356;28;981;-54
2023/05/16 07:27:26;;;;;;;;;;;;;;;17.47;88.88;94687.84;5074220;28;978;-54
2023/05/16 07:29:52;;;;;;;;;;;;;;;17.62;88.47;94693.78;5074328;28;973;-54
2023/05/16 07:32:19;;;;;;;;;;;;;;;17.63;88.48;94697.34;5074085;28;2005;-54
2023/05/16 07:34:45;;;;;;;;;;;;;;;17.66;88.81;94680.69;5073928;28;1046;-54
2023/05/16 07:37:11;;;;;;;;;;;;;;;17.63;88.06;94686.53;5073887;28;1012;-54
2023/05/16 07:39:41;;;;;;;;;;;;;;;17.82;87.92;94677.47;5073266;28;1015;-54
2023/05/16 07:42:07;;;;;;;;;;;;;;;17.76;88.37;94687.28;5056116;28;1009;-53
2023/05/16 07:44:34;;;;;;;;;;;;;;;17.78;87.13;94686.25;5073655;28;1364;-54
2023/05/16 07:47:01;;;;;;;;;;;;;;;18.01;88.37;94686.53;5073740;28;1116;-54
2023/05/16 07:49:28;;;;;;;;;;;;;;;18.22;86.53;94679.09;5073592;28;988;-54
2023/05/16 07:51:54;;;;;;;;;;;;;;;18.51;85.33;94689.25;5073829;28;1037;-54
2023/05/16 07:54:20;;;;;;;;;;;;;;;18.63;85.74;94683.97;5073766;28;1993;-54
2023/05/16 07:56:46;;;;;;;;;;;;;;;18.64;82.06;94690.19;5055869;28;1051;-54
2023/05/16 07:59:12;;;;;;;;;;;;;;;18.77;81.84;94689.25;5073802;28;1020;-54
2023/05/16 08:01:39;;;;;;;;;;;;;;;18.97;81.04;94683.66;5073732;28;962;-54
2023/05/16 08:04:05;;;;;;;;;;;;;;;19.30;80.14;94677.88;5073655;28;1043;-54
2023/05/16 08:06:31;;;;;;;;;;;;;;;19.64;79.08;94689.94;5073504;28;1072;-54
2023/05/16 08:08:57;;;;;;;;;;;;;;;19.40;76.54;94688.16;5073349;28;1296;-54
2023/05/16 08:11:23;;;;;;;;;;;;;;;18.97;79.45;94689.91;5073194;28;1034;-54
2023/05/16 08:13:49;;;;;;;;;;;;;;;18.80;79.55;94681.53;5073344;28;1913;-54
2023/05/16 08:16:16;;;;;;;;;;;;;;;18.70;81.56;94684.72;5073250;28;1038;-53
2023/05/16 08:18:42;;;;;;;;;;;;;;;18.75;82.49;94686.75;5073359;28;955;-54
2023/05/16 08:21:08;;;;;;;;;;;;;;;18.88;82.16;94683.94;5073393;28;969;-54
2023/05/16 08:23:35;;;;;;;;;;;;;;;18.95;81.21;94674.91;5073263;28;1053;-54
2023/05/16 08:26:01;;;;;;;;;;;;;;;19.24;79.58;94682.31;5073334;28;1071;-54
2023/05/16 08:28:28;;;;;;;;;;;;;;;19.25;78.49;94677.72;5073425;28;1021;-54
2023/05/16 08:30:54;;;;;;;;;;;;;;;19.13;79.02;94672.22;5073159;28;1047;-54
2023/05/16 08:33:20;;;;;;;;;;;;;;;19.07;80.26;94668.53;5055230;28;1914;-54
2023/05/16 08:35:48;;;;;;;;;;;;;;;19.03;80.24;94661.91;5073629;28;1024;-54
2023/05/16 08:38:14;;;;;;;;;;;;;;;18.81;78.95;94668.81;5072983;28;1190;-54
2023/05/16 08:40:41;;;;;;;;;;;;;;;18.80;81.27;94659.88;5072919;28;1005;-54
2023/05/16 08:43:07;;;;;;;;;;;;;;;18.84;77.88;94658.38;5072874;28;1892;-54
2023/05/16 08:45:33;;;;;;;;;;;;;;;18.86;80.96;94658.97;5073206;28;970;-54
2023/05/16 08:48:00;;;;;;;;;;;;;;;19.02;80.31;94664.84;5073066;28;1375;-54
2023/05/16 08:50:30;;;;;;;;;;;;;;;19.23;80.65;94660.84;5073307;28;1021;-53
2023/05/16 08:52:56;;;;;;;;;;;;;;;19.35;79.48;94666.34;5077091;28;2028;-54
2023/05/16 08:55:23;;;;;;;;;;;;;;;19.37;79.07;94662.34;5076943;28;1040;-54
2023/05/16 08:57:50;;;;;;;;;;;;;;;19.61;78.66;94662.47;5077086;28;1062;-55
2023/05/16 09:00:18;;;;;;;;;;;;;;;19.72;76.09;94656.28;5077261;28;1037;-54
2023/05/16 09:02:44;;;;;;;;;;;;;;;20.00;78.11;94665.72;5077008;28;1050;-55
2023/05/16 09:05:13;;;;;;;;;;;;;;;20.20;77.14;94668.91;5076879;28;1054;-53
2023/05/16 09:07:43;;;;;;;;;;;;;;;20.50;76.81;94669.94;5076940;28;977;-54
2023/05/16 09:10:10;;;;;;;;;;;;;;;20.66;74.46;94663.84;5076942;28;1577;-55
2023/05/16 09:12:36;;;;;;;;;;;;;;;20.78;73.56;94667.38;5077034;28;1988;-54
2023/05/16 09:15:04;;;;;;;;;;;;;;;20.58;76.47;94658.72;5076748;28;1046;-54
2023/05/16 09:17:37;;;;;;;;;;;;;;;20.34;76.95;94657.88;5076918;28;949;-54
2023/05/16 09:20:19;;;;;;;;;;;;;;;20.39;77.78;94649.84;5076960;28;1037;-54
2023/05/16 09:22:52;;;;;;;;;;;;;;;20.28;74.39;94654.22;5076814;28;965;-54
2023/05/16 09:25:19;;;;;;;;;;;;;;;20.53;74.48;94647.75;5076621;28;1056;-54
2023/05/16 09:27:46;;;;;;;;;;;;;;;20.67;74.47;94651.91;5076435;28;1105;-53
2023/05/16 09:30:13;;;;;;;;;;;;;;;20.83;73.84;94647.63;5076383;28;1066;-54
2023/05/16 09:32:42;;;;;;;;;;;;;;;21.12;72.84;94645.84;5076310;28;1984;-54
2023/05/16 09:35:09;;;;;;;;;;;;;;;21.11;71.91;94627.88;5076231;28;1014;-54
2023/05/16 09:37:35;;;;;;;;;;;;;;;21.30;70.29;94619.56;5076369;28;1139;-53
2023/05/16 09:40:02;;;;;;;;;;;;;;;21.06;70.24;94619.63;5076141;28;1108;-53
2023/05/16 09:42:28;;;;;;;;;;;;;;;21.27;69.22;94615.44;5075965;28;1306;-54
2023/05/16 09:44:55;;;;;;;;;;;;;;;21.32;71.85;94606.53;5076464;28;1013;-54
2023/05/16 09:47:21;;;;;;;;;;;;;;;21.39;72.47;94602.63;5076113;28;1032;-53
2023/05/16 09:49:51;;;;;;;;;;;;;;;21.44;73.76;94596.50;5076055;28;1114;-54
2023/05/16 09:52:17;;;;;;;;;;;;;;;21.39;71.16;94602.63;5076070;28;1934;-54
2023/05/16 09:54:45;;;;;;;;;;;;;;;21.16;71.58;94610.84;5076026;28;1033;-54
2023/05/16 09:57:11;;;;;;;;;;;;;;;21.19;72.84;94608.47;5075882;28;1092;-53
2023/05/16 09:59:38;;;;;;;;;;;;;;;20.90;72.41;94604.88;5076247;28;1056;-53
2023/05/16 10:02:06;;;;;;;;;;;;;;;20.87;74.00;94608.09;5075529;28;1040;-53
2023/05/16 10:04:35;;;;;;;;;;;;;;;21.10;72.58;94611.81;5075537;28;1043;-53
2023/05/16 10:07:03;;;;;;;;;;;;;;;21.13;72.71;94617.56;5076141;28;1037;-53
2023/05/16 10:09:32;;;;;;;;;;;;;;;21.27;72.17;94615.44;5075588;28;1576;-54
2023/05/16 10:12:02;;;;;;;;;;;;;;;21.43;72.65;94616.56;5075798;28;1216;-53
2023/05/16 10:14:29;;;;;;;;;;;;;;;21.34;72.23;94610.69;5075585;28;1910;-53
2023/05/16 10:16:56;;;;;;;;;;;;;;;21.13;72.20;94604.00;5075637;28;973;-54
2023/05/16 10:19:24;;;;;;;;;;;;;;;21.37;72.08;94604.75;5075277;28;1065;-54
2023/05/16 10:21:52;;;;;;;;;;;;;;;21.52;72.57;94596.09;5075816;28;1057;-54
2023/05/16 10:24:22;;;;;;;;;;;;;;;21.47;71.09;94590.56;5075433;28;1034;-54
2023/05/16 10:26:50;;;;;;;;;;;;;;;21.68;72.36;94589.03;5075591;28;970;-54
2023/05/16 10:29:17;;;;;;;;;;;;;;;21.66;68.34;94590.38;5057740;28;2180;-54
2023/05/16 10:31:43;;;;;;;;;;;;;;;21.48;69.70;94589.50;5075682;28;1114;-54
2023/05/16 10:34:09;;;;;;;;;;;;;;;21.28;70.06;94592.59;5075595;28;1993;-54
2023/05/16 10:36:35;;;;;;;;;;;;;;;21.11;69.23;94600.69;5075482;28;1048;-54
2023/05/16 10:39:02;;;;;;;;;;;;;;;21.17;69.90;94596.19;5075135;28;1105;-54
2023/05/16 10:41:28;;;;;;;;;;;;;;;21.09;69.98;94597.38;5075434;28;1021;-54
2023/05/16 10:43:55;;;;;;;;;;;;;;;21.16;71.17;94597.25;5075013;28;1109;-54
2023/05/16 10:46:22;;;;;;;;;;;;;;;21.22;72.87;94601.72;5074966;28;1101;-54
2023/05/16 10:48:48;;;;;;;;;;;;;;;21.28;73.78;94594.50;5074969;28;1066;-54
2023/05/16 10:51:20;;;;;;;;;;;;;;;21.33;75.77;94591.91;5075109;28;990;-54
2023/05/16 10:53:47;;;;;;;;;;;;;;;21.38;75.96;94595.53;5075092;28;1985;-55
2023/05/16 10:56:13;;;;;;;;;;;;;;;21.45;76.57;94598.94;5075159;28;1032;-54
2023/05/16 10:58:42;;;;;;;;;;;;;;;21.44;77.32;94604.66;5074851;28;1048;-55
2023/05/16 11:01:22;;;;;;;;;;;;;;;21.31;78.77;94618.50;5075025;28;954;-55
2023/05/16 11:04:00;;;;;;;;;;;;;;;21.15;79.96;94609.19;5074932;28;1028;-55
2023/05/16 11:06:26;;;;;;;;;;;;;;;20.83;78.29;94618.59;5074588;28;1303;-55
2023/05/16 11:09:10;;;;;;;;;;;;;;;20.68;80.84;94615.53;5074560;28;1542;-54
2023/05/16 11:11:39;;;;;;;;;;;;;;;20.58;83.68;94607.97;5074908;28;966;-55
2023/05/16 11:14:05;;;;;;;;;;;;;;;20.62;85.26;94616.47;5074689;28;1910;-55
2023/05/16 11:16:32;;;;;;;;;;;;;;;20.67;86.12;94605.72;5074737;28;1030;-59
2023/05/16 11:19:08;;;;;;;;;;;;;;;20.67;87.15;94594.88;5074459;28;989;-55
2023/05/16 11:21:52;;;;;;;;;;;;;;;20.57;84.64;94600.03;5074246;28;1048;-55
2023/05/16 11:24:29;;;;;;;;;;;;;;;20.58;83.72;94597.09;5074394;28;1295;-55
2023/05/16 11:26:55;;;;;;;;;;;;;;;20.54;85.37;94595.06;5074361;28;1001;-55
2023/05/16 11:29:21;;;;;;;;;;;;;;;20.54;84.76;94595.88;5074242;28;1051;-55
2023/05/16 11:31:48;;;;;;;;;;;;;;;20.63;85.92;94588.25;5074103;28;1929;-54
2023/05/16 11:34:14;;;;;;;;;;;;;;;20.53;84.79;94563.56;5073963;28;2015;-55
2023/05/16 11:36:41;;;;;;;;;;;;;;;20.81;82.70;94574.53;5074305;28;1040;-55
2023/05/16 11:39:11;;;;;;;;;;;;;;;21.06;84.87;94562.56;5074192;28;1040;-55
2023/05/16 11:41:37;;;;;;;;;;;;;;;21.23;83.46;94566.16;5074136;28;1033;-57
2023/05/16 11:44:05;;;;;;;;;;;;;;;21.28;82.50;94561.88;5073848;28;1369;-55
2023/05/16 11:46:32;;;;;;;;;;;;;;;21.29;80.23;94558.94;5074182;28;981;-55
2023/05/16 11:48:58;;;;;;;;;;;;;;;21.46;78.30;94561.72;5074080;28;978;-54
2023/05/16 11:51:24;;;;;;;;;;;;;;;21.43;78.73;94570.31;5073718;28;1265;-55
2023/05/16 11:53:50;;;;;;;;;;;;;;;21.56;79.27;94558.38;5073504;28;1909;-55
2023/05/16 11:56:17;;;;;;;;;;;;;;;21.51;80.09;94555.53;5073640;28;1069;-54
2023/05/16 11:58:44;;;;;;;;;;;;;;;21.52;81.70;94549.88;5073662;28;1097;-55
2023/05/16 12:01:10;;;;;;;;;;;;;;;21.54;79.35;94549.63;5073490;28;1100;-55
2023/05/16 12:03:37;;;;;;;;;;;;;;;21.75;81.83;94553.53;5073766;28;1032;-55
2023/05/16 12:06:04;;;;;;;;;;;;;;;21.66;80.43;94557.72;5073823;28;1028;-55
2023/05/16 12:08:30;;;;;;;;;;;;;;;21.76;80.98;94566.06;5073245;28;1554;-55
2023/05/16 12:10:56;;;;;;;;;;;;;;;21.86;79.52;94584.47;5073502;28;1054;-55
2023/05/16 12:13:23;;;;;;;;;;;;;;;21.84;72.65;94598.31;5073273;28;1913;-55
2023/05/16 12:15:50;;;;;;;;;;;;;;;21.81;75.01;94609.69;5073424;28;1049;-55
2023/05/16 12:18:16;;;;;;;;;;;;;;;21.75;74.69;94608.78;5073574;28;978;-55
2023/05/16 12:20:43;;;;;;;;;;;;;;;21.75;73.85;94589.72;5073298;28;1599;-54
2023/05/16 12:23:10;;;;;;;;;;;;;;;21.82;76.04;94600.47;5073570;28;1080;-53
2023/05/16 12:25:40;;;;;;;;;;;;;;;22.02;78.57;94606.28;5073047;28;1243;-53
2023/05/16 12:28:07;;;;;;;;;;;;;;;22.10;76.34;94601.47;5073379;28;1014;-53
2023/05/16 12:30:33;;;;;;;;;;;;;;;22.05;75.36;94594.06;5073184;28;1001;-52
2023/05/16 12:33:00;;;;;;;;;;;;;;;21.83;73.49;94602.94;5073420;28;1910;-53
2023/05/16 12:35:30;;;;;;;;;;;;;;;21.71;71.27;94594.00;5073415;28;977;-53
2023/05/16 12:37:56;;;;;;;;;;;;;;;21.72;72.91;94601.13;5073129;28;1082;-53
2023/05/16 12:40:22;;;;;;;;;;;;;;;21.81;72.62;94604.25;5073010;28;1042;-53
2023/05/16 12:42:50;;;;;;;;;;;;;;;21.92;70.09;94605.25;5072927;28;1097;-54
2023/05/16 12:45:17;;;;;;;;;;;;;;;22.01;72.27;94607.34;5072987;28;1042;-53
2023/05/16 12:47:43;;;;;;;;;;;;;;;22.04;72.08;94611.44;5073099;28;1457;-53
2023/05/16 12:50:13;;;;;;;;;;;;;;;21.93;72.17;94624.06;5073038;28;1053;-53
2023/05/16 12:52:52;;;;;;;;;;;;;;;21.83;72.95;94616.56;5073107;28;1985;-53